createdAt,value
2022-08-29T00:03:54.011Z,35.05
2022-08-29T00:08:51.514Z,35.21
2022-08-29T00:13:48.248Z,35.10
2022-08-29T00:18:45.218Z,35.71
2022-08-29T00:23:43.762Z,35.56
2022-08-29T00:28:41.008Z,35.70
2022-08-29T00:33:39.380Z,35.66
2022-08-29T00:38:36.247Z,36.07
2022-08-29T00:43:34.292Z,35.41
2022-08-29T00:48:34.037Z,34.97
2022-08-29T00:53:33.770Z,35.05
2022-08-29T00:58:31.933Z,34.77
2022-08-29T01:03:30.617Z,34.57
2022-08-29T01:08:28.021Z,34.38
2022-08-29T01:13:27.660Z,33.99
2022-08-29T01:18:24.333Z,33.74
2022-08-29T01:23:23.294Z,33.59
2022-08-29T01:28:23.054Z,33.80
2022-08-29T01:33:19.613Z,34.70
2022-08-29T01:38:26.964Z,35.21
2022-08-29T01:43:25.143Z,35.43
2022-08-29T01:48:22.001Z,34.92
2022-08-29T01:53:18.553Z,34.94
2022-08-29T01:58:15.949Z,35.33
2022-08-29T02:03:13.352Z,35.34
2022-08-29T02:08:09.971Z,34.94
2022-08-29T02:13:06.608Z,35.03
2022-08-29T02:18:03.233Z,34.99
2022-08-29T02:23:00.466Z,35.09
2022-08-29T02:27:57.093Z,35.18
2022-08-29T02:32:53.852Z,35.02
2022-08-29T02:37:50.393Z,35.00
2022-08-29T02:42:47.719Z,35.55
2022-08-29T02:47:44.333Z,36.65
2022-08-29T02:52:41.442Z,37.16
2022-08-29T02:57:38.065Z,37.49
2022-08-29T03:02:35.269Z,37.83
2022-08-29T03:07:31.883Z,38.25
2022-08-29T03:12:28.548Z,38.37
2022-08-29T03:17:28.798Z,38.11
2022-08-29T03:22:26.538Z,38.33
2022-08-29T03:27:23.116Z,38.69
2022-08-29T03:32:19.724Z,38.82
2022-08-29T03:37:16.316Z,38.88
2022-08-29T03:42:13.586Z,38.23
2022-08-29T03:47:10.178Z,38.59
2022-08-29T03:52:08.791Z,38.26
2022-08-29T03:57:05.571Z,38.14
2022-08-29T04:02:03.035Z,38.08
2022-08-29T04:07:00.192Z,37.78
2022-08-29T04:11:56.753Z,37.96
2022-08-29T04:16:53.301Z,38.13
2022-08-29T04:21:50.722Z,38.90
2022-08-29T04:26:47.291Z,40.23
2022-08-29T04:31:44.607Z,40.51
2022-08-29T04:36:42.368Z,40.99
2022-08-29T04:41:40.022Z,41.03
2022-08-29T04:46:36.624Z,41.57
2022-08-29T04:51:34.928Z,41.55
2022-08-29T04:56:31.476Z,41.53
2022-08-29T05:01:28.769Z,41.45
2022-08-29T05:06:25.368Z,41.03
2022-08-29T05:11:22.698Z,39.68
2022-08-29T05:16:19.705Z,38.44
2022-08-29T05:21:23.716Z,38.62
2022-08-29T05:26:22.664Z,39.11
2022-08-29T05:31:21.564Z,39.82
2022-08-29T05:36:18.228Z,40.23
2022-08-29T05:41:15.474Z,40.33
2022-08-29T05:46:12.109Z,39.77
2022-08-29T05:51:14.202Z,39.09
2022-08-29T05:56:10.803Z,39.27
2022-08-29T06:01:08.095Z,38.87
2022-08-29T06:06:04.923Z,38.64
2022-08-29T06:11:01.474Z,40.50
2022-08-29T06:15:58.139Z,41.13
2022-08-29T06:20:55.456Z,41.39
2022-08-29T06:25:55.242Z,42.10
2022-08-29T06:30:52.178Z,40.75
2022-08-29T06:35:49.103Z,39.42
2022-08-29T06:40:46.805Z,39.28
2022-08-29T06:45:43.724Z,39.07
2022-08-29T06:50:45.319Z,39.58
2022-08-29T06:55:42.468Z,40.10
2022-08-29T07:00:41.219Z,39.45
2022-08-29T07:05:38.011Z,39.13
2022-08-29T07:10:34.566Z,38.62
2022-08-29T07:15:31.536Z,38.23
2022-08-29T07:20:28.856Z,37.48
2022-08-29T07:25:27.017Z,37.48
2022-08-29T07:30:24.083Z,37.21
2022-08-29T07:35:29.993Z,37.65
2022-08-29T07:40:30.905Z,37.31
2022-08-29T07:45:27.526Z,37.19
2022-08-29T07:50:24.156Z,37.28
2022-08-29T07:55:21.687Z,37.14
2022-08-29T08:00:19.102Z,37.10
2022-08-29T08:05:18.563Z,35.22
2022-08-29T08:10:16.976Z,35.38
2022-08-29T08:15:13.733Z,34.01
2022-08-29T08:20:11.738Z,33.53
2022-08-29T08:25:08.846Z,34.58
2022-08-29T08:30:06.206Z,34.01
2022-08-29T08:35:03.182Z,33.37
2022-08-29T08:40:00.552Z,32.54
2022-08-29T08:45:03.135Z,32.58
2022-08-29T08:50:03.951Z,32.95
2022-08-29T08:55:02.796Z,32.17
2022-08-29T08:59:59.398Z,32.83
2022-08-29T09:04:59.587Z,32.83
2022-08-29T09:10:03.618Z,33.21
2022-08-29T09:15:04.123Z,32.61
2022-08-29T09:20:01.213Z,33.01
2022-08-29T09:24:59.829Z,32.73
2022-08-29T09:30:01.141Z,32.23
2022-08-29T09:35:08.805Z,32.14
2022-08-29T09:40:10.213Z,31.83
2022-08-29T09:45:15.390Z,32.47
2022-08-29T09:50:18.531Z,30.93
2022-08-29T09:55:27.692Z,31.30
2022-08-29T10:00:25.881Z,31.11
2022-08-29T10:05:29.078Z,30.55
2022-08-29T10:10:27.113Z,31.47
2022-08-29T10:15:47.036Z,30.98
2022-08-29T10:20:50.274Z,30.68
2022-08-29T10:25:47.233Z,29.86
2022-08-29T10:30:48.542Z,29.99
2022-08-29T10:35:54.531Z,28.65
2022-08-29T10:40:55.102Z,28.62
2022-08-29T10:46:12.512Z,28.05
2022-08-29T10:51:20.256Z,28.16
2022-08-29T10:56:20.816Z,27.93
2022-08-29T11:01:20.580Z,28.56
2022-08-29T11:06:22.689Z,27.55
2022-08-29T11:11:21.883Z,27.48
2022-08-29T11:16:21.121Z,27.38
2022-08-29T11:21:28.517Z,26.16
2022-08-29T11:26:31.759Z,26.10
2022-08-29T11:31:37.350Z,25.92
2022-08-29T11:36:45.713Z,27.10
2022-08-29T11:41:43.778Z,26.01
2022-08-29T11:46:42.057Z,26.41
2022-08-29T11:51:40.125Z,26.57
2022-08-29T11:56:37.191Z,26.48
2022-08-29T12:01:52.409Z,26.39
2022-08-29T12:06:56.722Z,25.59
2022-08-29T12:12:12.119Z,25.27
2022-08-29T12:17:10.011Z,25.67
2022-08-29T12:22:07.410Z,25.55
2022-08-29T12:27:23.143Z,24.98
2022-08-29T12:32:40.002Z,25.27
2022-08-29T12:37:45.271Z,25.62
2022-08-29T12:42:48.080Z,25.23
2022-08-29T12:47:50.787Z,24.72
2022-08-29T12:52:59.035Z,24.73
2022-08-29T12:57:56.911Z,24.69
2022-08-29T13:03:01.076Z,23.64
2022-08-29T13:08:00.415Z,23.54
2022-08-29T13:13:04.582Z,24.06
2022-08-29T13:18:01.725Z,23.87
2022-08-29T13:23:15.109Z,23.23
2022-08-29T13:28:16.222Z,23.40
2022-08-29T13:33:27.040Z,23.73
2022-08-29T13:38:32.502Z,23.27
2022-08-29T13:43:33.174Z,23.86
2022-08-29T13:48:29.893Z,24.00
2022-08-29T13:53:26.569Z,23.22
2022-08-29T13:58:26.199Z,22.94
2022-08-29T14:03:23.317Z,22.45
2022-08-29T14:08:21.445Z,22.97
2022-08-29T14:13:18.170Z,22.56
2022-08-29T14:18:15.954Z,22.98
2022-08-29T14:23:12.897Z,23.28
2022-08-29T14:28:09.658Z,23.48
2022-08-29T14:33:10.720Z,22.91
2022-08-29T14:38:11.175Z,22.42
2022-08-29T14:43:10.093Z,23.30
2022-08-29T14:48:06.769Z,23.59
2022-08-29T14:53:03.928Z,22.57
2022-08-29T14:58:01.471Z,22.76
2022-08-29T15:02:59.316Z,22.70
2022-08-29T15:07:56.266Z,22.28
2022-08-29T15:12:53.152Z,22.50
2022-08-29T15:17:50.500Z,22.38
2022-08-29T15:22:47.192Z,22.46
2022-08-29T15:27:43.999Z,22.17
2022-08-29T15:32:40.675Z,21.90
2022-08-29T15:37:38.133Z,22.19
2022-08-29T15:42:34.881Z,22.35
2022-08-29T15:47:31.792Z,22.44
2022-08-29T15:52:30.822Z,22.31
2022-08-29T15:57:28.847Z,22.67
2022-08-29T16:02:25.718Z,22.44
2022-08-29T16:07:22.507Z,23.45
2022-08-29T16:12:19.225Z,24.05
2022-08-29T16:17:16.561Z,25.12
2022-08-29T16:22:13.229Z,25.11
2022-08-29T16:27:09.939Z,25.18
2022-08-29T16:32:08.030Z,24.77
2022-08-29T16:37:05.436Z,25.12
2022-08-29T16:42:02.275Z,29.25
2022-08-29T16:46:58.896Z,28.06
2022-08-29T16:51:56.859Z,27.16
2022-08-29T16:56:54.646Z,27.19
2022-08-29T17:01:53.277Z,26.53
2022-08-29T17:06:51.252Z,26.56
2022-08-29T17:11:47.530Z,27.07
2022-08-29T17:16:46.242Z,27.15
2022-08-29T17:21:43.347Z,27.25
2022-08-29T17:26:42.592Z,27.67
2022-08-29T17:31:39.767Z,27.63
2022-08-29T17:36:37.900Z,26.69
2022-08-29T17:41:36.759Z,26.80
2022-08-29T17:46:34.492Z,27.82
2022-08-29T17:51:31.224Z,28.03
2022-08-29T17:56:38.911Z,33.31
2022-08-29T18:01:41.368Z,31.58
2022-08-29T18:06:38.346Z,31.37
2022-08-29T18:11:37.425Z,31.32
2022-08-29T18:16:34.210Z,33.74
2022-08-29T18:21:32.306Z,33.62
2022-08-29T18:26:29.044Z,33.25
2022-08-29T18:31:26.414Z,32.84
2022-08-29T18:36:23.154Z,31.68
2022-08-29T18:41:19.911Z,31.31
2022-08-29T18:46:16.716Z,31.12
2022-08-29T18:51:14.424Z,30.89
2022-08-29T18:56:11.573Z,30.88
2022-08-29T19:01:12.257Z,30.39
2022-08-29T19:06:09.994Z,30.53
2022-08-29T19:11:07.472Z,31.18
2022-08-29T19:16:05.527Z,31.38
2022-08-29T19:21:02.270Z,32.06
2022-08-29T19:25:59.171Z,35.50
2022-08-29T19:30:56.790Z,36.33
2022-08-29T19:35:53.513Z,35.50
2022-08-29T19:40:55.091Z,35.63
2022-08-29T19:45:54.327Z,35.82
2022-08-29T19:50:53.945Z,35.37
2022-08-29T19:55:50.829Z,33.71
2022-08-29T20:00:47.602Z,31.43
2022-08-29T20:05:44.358Z,31.81
2022-08-29T20:10:44.354Z,32.29
2022-08-29T20:15:46.808Z,33.30
2022-08-29T20:20:43.930Z,33.10
2022-08-29T20:25:41.307Z,33.94
2022-08-29T20:30:37.921Z,34.35
2022-08-29T20:35:52.688Z,35.28
2022-08-29T20:40:49.932Z,36.52
2022-08-29T20:45:46.665Z,38.79
2022-08-29T20:50:43.216Z,41.47
2022-08-29T20:55:40.403Z,39.64
2022-08-29T21:00:37.876Z,39.51
2022-08-29T21:05:40.379Z,38.67
2022-08-29T21:10:37.038Z,36.13
2022-08-29T21:15:33.656Z,36.65
2022-08-29T21:20:31.272Z,36.26
2022-08-29T21:25:27.850Z,36.31
2022-08-29T21:30:24.489Z,36.69
2022-08-29T21:35:21.453Z,35.63
2022-08-29T21:40:24.315Z,35.84
2022-08-29T21:45:21.191Z,35.26
2022-08-29T21:50:18.327Z,35.10
2022-08-29T21:55:15.014Z,34.34
2022-08-29T22:00:13.811Z,36.75
2022-08-29T22:05:10.367Z,35.54
2022-08-29T22:10:07.407Z,36.66
2022-08-29T22:15:22.551Z,36.62
2022-08-29T22:20:19.944Z,37.62
2022-08-29T22:25:16.496Z,35.07
2022-08-29T22:30:17.001Z,35.52
2022-08-29T22:35:13.927Z,35.29
2022-08-29T22:40:12.984Z,35.71
2022-08-29T22:45:10.372Z,36.21
2022-08-29T22:50:08.899Z,36.28
2022-08-29T22:55:05.608Z,35.45
2022-08-29T23:00:03.852Z,34.37
2022-08-29T23:05:00.395Z,34.27
2022-08-29T23:09:56.958Z,33.87
2022-08-29T23:14:53.621Z,34.27
2022-08-29T23:19:50.893Z,34.54
2022-08-29T23:24:57.796Z,34.74
2022-08-29T23:29:55.946Z,35.07
2022-08-29T23:34:53.154Z,36.10
2022-08-29T23:39:50.183Z,35.52
2022-08-29T23:44:48.239Z,35.29
2022-08-29T23:49:45.234Z,35.46
2022-08-29T23:54:42.442Z,35.65
2022-08-29T23:59:57.599Z,37.48
